sensor_id;sensor_type;location;lat;lon;timestamp;pressure;altitude;pressure_sealevel;temperature;humidity
62710;BME280;48770;51.624;5.886;2023-06-10T00:01:12;101278.69;;;27.50;34.07
62710;BME280;48770;51.624;5.886;2023-06-10T00:03:38;101281.50;;;27.50;33.77
62710;BME280;48770;51.624;5.886;2023-06-10T00:06:04;101291.56;;;27.51;33.64
62710;BME280;48770;51.624;5.886;2023-06-10T00:08:30;101287.13;;;27.50;33.99
62710;BME280;48770;51.624;5.886;2023-06-10T00:10:56;101284.31;;;27.50;33.83
62710;BME280;48770;51.624;5.886;2023-06-10T00:13:22;101286.31;;;27.49;33.95
62710;BME280;48770;51.624;5.886;2023-06-10T00:15:47;101284.72;;;27.48;33.87
62710;BME280;48770;51.624;5.886;2023-06-10T00:18:12;101284.72;;;27.48;33.92
62710;BME280;48770;51.624;5.886;2023-06-10T00:20:38;101286.72;;;27.48;33.64
62710;BME280;48770;51.624;5.886;2023-06-10T00:23:04;101282.72;;;27.49;34.05
62710;BME280;48770;51.624;5.886;2023-06-10T00:25:31;101283.50;;;27.49;33.71
62710;BME280;48770;51.624;5.886;2023-06-10T00:27:57;101285.50;;;27.49;33.84
62710;BME280;48770;51.624;5.886;2023-06-10T00:30:22;101283.91;;;27.48;34.12
62710;BME280;48770;51.624;5.886;2023-06-10T00:32:48;101283.47;;;27.46;33.76
62710;BME280;48770;51.624;5.886;2023-06-10T00:35:13;101287.09;;;27.46;33.99
62710;BME280;48770;51.624;5.886;2023-06-10T00:37:38;101291.91;;;27.46;33.70
62710;BME280;48770;51.624;5.886;2023-06-10T00:40:05;101292.72;;;27.46;33.87
62710;BME280;48770;51.624;5.886;2023-06-10T00:42:30;101289.91;;;27.46;33.71
62710;BME280;48770;51.624;5.886;2023-06-10T00:44:56;101303.16;;;27.46;34.15
62710;BME280;48770;51.624;5.886;2023-06-10T00:47:22;101295.09;;;27.44;34.02
62710;BME280;48770;51.624;5.886;2023-06-10T00:49:48;101296.72;;;27.45;34.02
62710;BME280;48770;51.624;5.886;2023-06-10T00:52:14;101298.72;;;27.45;33.84
62710;BME280;48770;51.624;5.886;2023-06-10T00:54:41;101294.31;;;27.44;33.99
62710;BME280;48770;51.624;5.886;2023-06-10T00:57:07;101299.91;;;27.44;33.73
62710;BME280;48770;51.624;5.886;2023-06-10T00:59:33;101300.72;;;27.44;34.12
62710;BME280;48770;51.624;5.886;2023-06-10T01:01:59;101303.53;;;27.44;34.05
62710;BME280;48770;51.624;5.886;2023-06-10T01:04:25;101299.91;;;27.44;34.04
62710;BME280;48770;51.624;5.886;2023-06-10T01:07:08;101315.16;;;27.43;34.26
62710;BME280;48770;51.624;5.886;2023-06-10T01:12:19;101307.94;;;27.42;33.95
62710;BME280;48770;51.624;5.886;2023-06-10T01:14:46;101303.31;;;27.23;34.26
62710;BME280;48770;51.624;5.886;2023-06-10T01:17:12;101308.25;;;27.33;34.10
62710;BME280;48770;51.624;5.886;2023-06-10T01:19:37;101303.06;;;27.35;34.29
62710;BME280;48770;51.624;5.886;2023-06-10T01:22:03;101306.28;;;27.37;34.12
62710;BME280;48770;51.624;5.886;2023-06-10T01:24:30;101309.91;;;27.38;34.14
62710;BME280;48770;51.624;5.886;2023-06-10T01:27:00;101318.75;;;27.40;34.13
62710;BME280;48770;51.624;5.886;2023-06-10T01:29:36;101307.91;;;27.38;34.05
62710;BME280;48770;51.624;5.886;2023-06-10T01:32:18;101306.28;;;27.37;34.28
62710;BME280;48770;51.624;5.886;2023-06-10T01:34:44;101311.09;;;27.37;33.99
62710;BME280;48770;51.624;5.886;2023-06-10T01:37:13;101297.84;;;27.37;33.99
62710;BME280;48770;51.624;5.886;2023-06-10T01:39:42;101312.72;;;27.38;34.17
62710;BME280;48770;51.624;5.886;2023-06-10T01:42:08;101305.09;;;27.38;33.99
62710;BME280;48770;51.624;5.886;2023-06-10T01:44:35;101302.66;;;27.37;33.85
62710;BME280;48770;51.624;5.886;2023-06-10T01:47:00;101301.47;;;27.38;34.11
62710;BME280;48770;51.624;5.886;2023-06-10T01:49:26;101297.06;;;27.37;34.42
62710;BME280;48770;51.624;5.886;2023-06-10T01:51:52;101303.47;;;27.37;34.46
62710;BME280;48770;51.624;5.886;2023-06-10T01:54:17;101311.09;;;27.37;34.12
62710;BME280;48770;51.624;5.886;2023-06-10T01:56:42;101300.25;;;27.35;34.27
62710;BME280;48770;51.624;5.886;2023-06-10T01:59:07;101307.88;;;27.34;34.30
62710;BME280;48770;51.624;5.886;2023-06-10T02:01:33;101303.88;;;27.36;34.17
62710;BME280;48770;51.624;5.886;2023-06-10T02:03:58;101314.28;;;27.35;34.33
62710;BME280;48770;51.624;5.886;2023-06-10T02:06:23;101316.28;;;27.34;34.41
62710;BME280;48770;51.624;5.886;2023-06-10T02:08:49;101313.47;;;27.34;34.52
62710;BME280;48770;51.624;5.886;2023-06-10T02:11:15;101301.44;;;27.34;34.28
62710;BME280;48770;51.624;5.886;2023-06-10T02:13:40;101310.69;;;27.34;34.42
62710;BME280;48770;51.624;5.886;2023-06-10T02:16:05;101309.88;;;27.34;34.31
62710;BME280;48770;51.624;5.886;2023-06-10T02:18:31;101317.50;;;27.33;34.49
62710;BME280;48770;51.624;5.886;2023-06-10T02:20:56;101321.09;;;27.34;34.57
62710;BME280;48770;51.624;5.886;2023-06-10T02:23:22;101318.28;;;27.34;34.27
62710;BME280;48770;51.624;5.886;2023-06-10T02:25:47;101323.09;;;27.33;34.64
62710;BME280;48770;51.624;5.886;2023-06-10T02:28:13;101318.69;;;27.32;34.50
62710;BME280;48770;51.624;5.886;2023-06-10T02:30:41;101318.69;;;27.32;34.37
62710;BME280;48770;51.624;5.886;2023-06-10T02:33:07;101322.28;;;27.33;34.54
62710;BME280;48770;51.624;5.886;2023-06-10T02:35:40;101313.06;;;27.32;34.53
62710;BME280;48770;51.624;5.886;2023-06-10T02:38:06;101317.03;;;27.31;34.63
62710;BME280;48770;51.624;5.886;2023-06-10T02:40:31;101328.28;;;27.31;34.70
62710;BME280;48770;51.624;5.886;2023-06-10T02:42:57;101321.84;;;27.31;34.63
62710;BME280;48770;51.624;5.886;2023-06-10T02:45:23;101318.22;;;27.30;34.60
62710;BME280;48770;51.624;5.886;2023-06-10T02:47:48;101322.22;;;27.29;34.80
62710;BME280;48770;51.624;5.886;2023-06-10T02:50:14;101329.47;;;27.30;34.72
62710;BME280;48770;51.624;5.886;2023-06-10T02:52:39;101327.03;;;27.29;34.62
62710;BME280;48770;51.624;5.886;2023-06-10T02:55:05;101329.84;;;27.29;34.46
62710;BME280;48770;51.624;5.886;2023-06-10T02:57:30;101321.44;;;27.29;34.62
62710;BME280;48770;51.624;5.886;2023-06-10T02:59:55;101325.44;;;27.28;34.62
62710;BME280;48770;51.624;5.886;2023-06-10T03:02:21;101326.22;;;27.28;34.74
62710;BME280;48770;51.624;5.886;2023-06-10T03:04:47;101329.03;;;27.28;34.87
62710;BME280;48770;51.624;5.886;2023-06-10T03:07:12;101324.22;;;27.29;34.88
62710;BME280;48770;51.624;5.886;2023-06-10T03:09:37;101326.63;;;27.27;34.84
62710;BME280;48770;51.624;5.886;2023-06-10T03:12:03;101331.44;;;27.26;34.68
62710;BME280;48770;51.624;5.886;2023-06-10T03:14:29;101331.44;;;27.26;35.11
62710;BME280;48770;51.624;5.886;2023-06-10T03:16:54;101328.63;;;27.26;34.83
62710;BME280;48770;51.624;5.886;2023-06-10T03:19:19;101331.81;;;27.25;34.87
62710;BME280;48770;51.624;5.886;2023-06-10T03:21:49;101331.81;;;27.25;34.59
62710;BME280;48770;51.624;5.886;2023-06-10T03:24:15;101331.81;;;27.25;34.50
62710;BME280;48770;51.624;5.886;2023-06-10T03:26:41;101335.81;;;27.24;34.53
62710;BME280;48770;51.624;5.886;2023-06-10T03:29:06;101334.19;;;27.23;34.68
62710;BME280;48770;51.624;5.886;2023-06-10T03:31:32;101340.63;;;27.23;34.50
62710;BME280;48770;51.624;5.886;2023-06-10T03:33:57;101332.59;;;27.22;34.47
62710;BME280;48770;51.624;5.886;2023-06-10T03:36:23;101340.22;;;27.21;34.46
62710;BME280;48770;51.624;5.886;2023-06-10T03:38:49;101345.81;;;27.21;34.89
62710;BME280;48770;51.624;5.886;2023-06-10T03:41:17;101344.63;;;27.22;34.92
62710;BME280;48770;51.624;5.886;2023-06-10T03:43:42;101345.81;;;27.21;34.63
62710;BME280;48770;51.624;5.886;2023-06-10T03:46:09;101347.00;;;27.20;34.77
62710;BME280;48770;51.624;5.886;2023-06-10T03:48:35;101352.63;;;27.20;34.82
62710;BME280;48770;51.624;5.886;2023-06-10T03:51:01;101356.63;;;27.19;34.69
62710;BME280;48770;51.624;5.886;2023-06-10T03:53:26;101353.81;;;27.19;34.83
62710;BME280;48770;51.624;5.886;2023-06-10T03:55:52;101355.81;;;27.19;35.02
62710;BME280;48770;51.624;5.886;2023-06-10T03:58:17;101355.00;;;27.18;34.67
62710;BME280;48770;51.624;5.886;2023-06-10T04:00:43;101355.00;;;27.18;34.63
62710;BME280;48770;51.624;5.886;2023-06-10T04:03:09;101357.00;;;27.18;34.73
62710;BME280;48770;51.624;5.886;2023-06-10T04:05:35;101354.22;;;27.18;34.47
62710;BME280;48770;51.624;5.886;2023-06-10T04:08:00;101357.41;;;27.16;34.76
62710;BME280;48770;51.624;5.886;2023-06-10T04:10:26;101357.41;;;27.16;34.59
62710;BME280;48770;51.624;5.886;2023-06-10T04:12:52;101360.59;;;27.15;34.71
62710;BME280;48770;51.624;5.886;2023-06-10T04:15:17;101354.97;;;27.15;34.68
62710;BME280;48770;51.624;5.886;2023-06-10T04:17:43;101361.41;;;27.15;34.71
62710;BME280;48770;51.624;5.886;2023-06-10T04:20:08;101363.00;;;27.16;34.44
62710;BME280;48770;51.624;5.886;2023-06-10T04:22:35;101365.41;;;27.14;34.63
62710;BME280;48770;51.624;5.886;2023-06-10T04:25:01;101365.41;;;27.14;34.48
62710;BME280;48770;51.624;5.886;2023-06-10T04:27:27;101365.41;;;27.14;34.65
62710;BME280;48770;51.624;5.886;2023-06-10T04:29:52;101372.63;;;27.15;34.40
62710;BME280;48770;51.624;5.886;2023-06-10T04:32:18;101371.81;;;27.15;34.22
62710;BME280;48770;51.624;5.886;2023-06-10T04:34:43;101376.63;;;27.14;34.38
62710;BME280;48770;51.624;5.886;2023-06-10T04:37:09;101368.22;;;27.14;34.74
62710;BME280;48770;51.624;5.886;2023-06-10T04:39:34;101373.81;;;27.14;34.61
62710;BME280;48770;51.624;5.886;2023-06-10T04:41:59;101376.63;;;27.14;34.31
62710;BME280;48770;51.624;5.886;2023-06-10T04:44:25;101381.44;;;27.14;34.39
62710;BME280;48770;51.624;5.886;2023-06-10T04:46:51;101375.00;;;27.13;34.41
62710;BME280;48770;51.624;5.886;2023-06-10T04:49:16;101375.00;;;27.13;34.58
62710;BME280;48770;51.624;5.886;2023-06-10T04:51:42;101377.81;;;27.13;34.67
62710;BME280;48770;51.624;5.886;2023-06-10T04:54:07;101378.63;;;27.14;34.35
62710;BME280;48770;51.624;5.886;2023-06-10T04:56:33;101376.63;;;27.14;34.23
62710;BME280;48770;51.624;5.886;2023-06-10T04:59:01;101384.25;;;27.14;34.26
62710;BME280;48770;51.624;5.886;2023-06-10T05:01:26;101385.44;;;27.13;34.69
62710;BME280;48770;51.624;5.886;2023-06-10T05:03:52;101379.44;;;27.14;34.44
62710;BME280;48770;51.624;5.886;2023-06-10T05:06:18;101377.81;;;27.13;34.24
62710;BME280;48770;51.624;5.886;2023-06-10T05:08:43;101375.81;;;27.14;34.49
62710;BME280;48770;51.624;5.886;2023-06-10T05:11:09;101381.44;;;27.14;34.49
62710;BME280;48770;51.624;5.886;2023-06-10T05:13:34;101379.81;;;27.13;34.21
62710;BME280;48770;51.624;5.886;2023-06-10T05:16:00;101384.25;;;27.14;34.42
62710;BME280;48770;51.624;5.886;2023-06-10T05:18:25;101383.06;;;27.15;34.44
62710;BME280;48770;51.624;5.886;2023-06-10T05:20:50;101382.25;;;27.14;34.27
62710;BME280;48770;51.624;5.886;2023-06-10T05:23:16;101382.25;;;27.14;34.43
62710;BME280;48770;51.624;5.886;2023-06-10T05:25:41;101382.25;;;27.14;34.30
62710;BME280;48770;51.624;5.886;2023-06-10T05:28:07;101388.28;;;27.16;34.54
62710;BME280;48770;51.624;5.886;2023-06-10T05:30:35;101389.09;;;27.17;34.50
62710;BME280;48770;51.624;5.886;2023-06-10T05:33:00;101385.09;;;27.18;34.55
62710;BME280;48770;51.624;5.886;2023-06-10T05:35:26;101386.28;;;27.17;34.46
62710;BME280;48770;51.624;5.886;2023-06-10T05:37:51;101384.28;;;27.17;34.35
62710;BME280;48770;51.624;5.886;2023-06-10T05:40:16;101384.28;;;27.17;34.43
62710;BME280;48770;51.624;5.886;2023-06-10T05:42:42;101384.28;;;27.17;34.59
62710;BME280;48770;51.624;5.886;2023-06-10T05:45:08;101385.91;;;27.18;34.50
62710;BME280;48770;51.624;5.886;2023-06-10T05:47:33;101378.66;;;27.17;34.22
62710;BME280;48770;51.624;5.886;2023-06-10T05:49:58;101381.47;;;27.17;34.55
62710;BME280;48770;51.624;5.886;2023-06-10T05:52:24;101393.50;;;27.18;34.47
62710;BME280;48770;51.624;5.886;2023-06-10T05:54:50;101394.31;;;27.18;34.48
62710;BME280;48770;51.624;5.886;2023-06-10T05:57:15;101395.94;;;27.19;34.37
62710;BME280;48770;51.624;5.886;2023-06-10T05:59:40;101393.13;;;27.19;34.48
62710;BME280;48770;51.624;5.886;2023-06-10T06:02:06;101390.31;;;27.19;34.23
62710;BME280;48770;51.624;5.886;2023-06-10T06:04:31;101389.50;;;27.19;34.79
62710;BME280;48770;51.624;5.886;2023-06-10T06:06:57;101389.50;;;27.19;34.53
62710;BME280;48770;51.624;5.886;2023-06-10T06:09:22;101395.94;;;27.19;34.54
62710;BME280;48770;51.624;5.886;2023-06-10T06:11:48;101392.31;;;27.19;34.43
62710;BME280;48770;51.624;5.886;2023-06-10T06:14:13;101388.69;;;27.18;34.43
62710;BME280;48770;51.624;5.886;2023-06-10T06:16:38;101396.31;;;27.18;34.35
62710;BME280;48770;51.624;5.886;2023-06-10T06:19:04;101389.09;;;27.17;34.65
62710;BME280;48770;51.624;5.886;2023-06-10T06:21:29;101389.91;;;27.17;34.29
62710;BME280;48770;51.624;5.886;2023-06-10T06:23:54;101396.31;;;27.18;34.49
62710;BME280;48770;51.624;5.886;2023-06-10T06:26:19;101387.91;;;27.18;34.33
62710;BME280;48770;51.624;5.886;2023-06-10T06:28:45;101394.69;;;27.17;34.48
62710;BME280;48770;51.624;5.886;2023-06-10T06:31:11;101393.50;;;27.18;34.55
62710;BME280;48770;51.624;5.886;2023-06-10T06:33:36;101391.91;;;27.17;34.37
62710;BME280;48770;51.624;5.886;2023-06-10T06:36:01;101399.94;;;27.18;34.57
62710;BME280;48770;51.624;5.886;2023-06-10T06:38:27;101399.13;;;27.18;34.46
62710;BME280;48770;51.624;5.886;2023-06-10T06:40:52;101398.31;;;27.17;34.29
62710;BME280;48770;51.624;5.886;2023-06-10T06:43:18;101400.75;;;27.19;34.63
62710;BME280;48770;51.624;5.886;2023-06-10T06:45:44;101401.56;;;27.19;34.49
62710;BME280;48770;51.624;5.886;2023-06-10T06:48:10;101399.13;;;27.18;34.38
62710;BME280;48770;51.624;5.886;2023-06-10T06:50:36;101400.75;;;27.19;34.57
62710;BME280;48770;51.624;5.886;2023-06-10T06:53:01;101404.75;;;27.18;34.57
62710;BME280;48770;51.624;5.886;2023-06-10T06:55:27;101403.94;;;27.17;34.34
62710;BME280;48770;51.624;5.886;2023-06-10T06:57:52;101405.94;;;27.17;34.65
62710;BME280;48770;51.624;5.886;2023-06-10T07:00:18;101408.34;;;27.18;34.86
62710;BME280;48770;51.624;5.886;2023-06-10T07:02:43;101410.34;;;27.18;34.48
62710;BME280;48770;51.624;5.886;2023-06-10T07:05:08;101411.97;;;27.19;34.42
62710;BME280;48770;51.624;5.886;2023-06-10T07:07:34;101408.34;;;27.18;34.63
62710;BME280;48770;51.624;5.886;2023-06-10T07:09:59;101403.94;;;27.17;34.40
62710;BME280;48770;51.624;5.886;2023-06-10T07:12:25;101401.13;;;27.17;34.38
62710;BME280;48770;51.624;5.886;2023-06-10T07:14:50;101406.75;;;27.17;34.50
62710;BME280;48770;51.624;5.886;2023-06-10T07:17:16;101409.16;;;27.19;34.63
62710;BME280;48770;51.624;5.886;2023-06-10T07:19:43;101409.16;;;27.19;34.73
62710;BME280;48770;51.624;5.886;2023-06-10T07:22:09;101415.97;;;27.18;34.64
62710;BME280;48770;51.624;5.886;2023-06-10T07:24:34;101423.19;;;27.19;34.73
62710;BME280;48770;51.624;5.886;2023-06-10T07:26:59;101423.19;;;27.19;34.47
62710;BME280;48770;51.624;5.886;2023-06-10T07:29:25;101420.41;;;27.19;34.41
62710;BME280;48770;51.624;5.886;2023-06-10T07:31:50;101417.59;;;27.19;35.03
62710;BME280;48770;51.624;5.886;2023-06-10T07:34:16;101418.41;;;27.19;34.67
62710;BME280;48770;51.624;5.886;2023-06-10T07:36:41;101425.19;;;27.18;34.63
62710;BME280;48770;51.624;5.886;2023-06-10T07:39:06;101416.41;;;27.20;34.59
62710;BME280;48770;51.624;5.886;2023-06-10T07:41:32;101417.19;;;27.20;34.75
62710;BME280;48770;51.624;5.886;2023-06-10T07:43:58;101421.19;;;27.19;34.57
62710;BME280;48770;51.624;5.886;2023-06-10T07:46:23;101424.00;;;27.19;34.72
62710;BME280;48770;51.624;5.886;2023-06-10T07:48:49;101420.00;;;27.20;34.77
62710;BME280;48770;51.624;5.886;2023-06-10T07:51:16;101423.63;;;27.21;34.62
62710;BME280;48770;51.624;5.886;2023-06-10T07:53:41;101425.63;;;27.20;34.87
62710;BME280;48770;51.624;5.886;2023-06-10T07:56:06;101420.00;;;27.20;34.69
62710;BME280;48770;51.624;5.886;2023-06-10T07:58:32;101424.00;;;27.19;34.84
62710;BME280;48770;51.624;5.886;2023-06-10T08:00:57;101420.00;;;27.20;34.63
62710;BME280;48770;51.624;5.886;2023-06-10T08:03:22;101420.00;;;27.20;34.46
62710;BME280;48770;51.624;5.886;2023-06-10T08:05:48;101424.81;;;27.20;34.54
62710;BME280;48770;51.624;5.886;2023-06-10T08:08:13;101421.63;;;27.21;34.81
62710;BME280;48770;51.624;5.886;2023-06-10T08:10:38;101428.44;;;27.20;34.76
62710;BME280;48770;51.624;5.886;2023-06-10T08:13:04;101425.63;;;27.20;34.74
62710;BME280;48770;51.624;5.886;2023-06-10T08:15:29;101417.19;;;27.20;34.79
62710;BME280;48770;51.624;5.886;2023-06-10T08:17:55;101422.81;;;27.20;34.92
62710;BME280;48770;51.624;5.886;2023-06-10T08:20:21;101417.63;;;27.22;34.98
62710;BME280;48770;51.624;5.886;2023-06-10T08:22:46;101418.81;;;27.21;34.90
62710;BME280;48770;51.624;5.886;2023-06-10T08:25:12;101416.00;;;27.21;34.55
62710;BME280;48770;51.624;5.886;2023-06-10T08:27:37;101423.25;;;27.22;34.90
62710;BME280;48770;51.624;5.886;2023-06-10T08:30:02;101420.44;;;27.22;34.98
62710;BME280;48770;51.624;5.886;2023-06-10T08:32:29;101419.25;;;27.23;34.75
62710;BME280;48770;51.624;5.886;2023-06-10T08:34:54;101414.44;;;27.24;34.56
62710;BME280;48770;51.624;5.886;2023-06-10T08:37:20;101419.25;;;27.23;35.31
62710;BME280;48770;51.624;5.886;2023-06-10T08:39:45;101413.63;;;27.23;35.32
62710;BME280;48770;51.624;5.886;2023-06-10T08:42:23;101419.25;;;27.23;35.64
62710;BME280;48770;51.624;5.886;2023-06-10T08:44:53;101420.06;;;27.24;35.76
62710;BME280;48770;51.624;5.886;2023-06-10T08:47:22;101420.47;;;27.26;35.67
62710;BME280;48770;51.624;5.886;2023-06-10T08:49:48;101422.47;;;27.25;35.65
62710;BME280;48770;51.624;5.886;2023-06-10T08:52:15;101423.28;;;27.26;35.72
62710;BME280;48770;51.624;5.886;2023-06-10T08:54:49;101417.66;;;27.26;35.83
62710;BME280;48770;51.624;5.886;2023-06-10T08:57:17;101419.66;;;27.25;35.89
62710;BME280;48770;51.624;5.886;2023-06-10T08:59:46;101420.47;;;27.26;36.20
62710;BME280;48770;51.624;5.886;2023-06-10T09:02:11;101415.66;;;27.26;36.09
62710;BME280;48770;51.624;5.886;2023-06-10T09:04:38;101427.28;;;27.25;36.02
62710;BME280;48770;51.624;5.886;2023-06-10T09:07:04;101418.47;;;27.26;35.94
62710;BME280;48770;51.624;5.886;2023-06-10T09:09:30;101420.91;;;27.28;36.09
62710;BME280;48770;51.624;5.886;2023-06-10T09:11:58;101416.09;;;27.28;35.75
62710;BME280;48770;51.624;5.886;2023-06-10T09:14:23;101420.50;;;27.29;35.90
62710;BME280;48770;51.624;5.886;2023-06-10T09:16:49;101414.91;;;27.29;35.72
62710;BME280;48770;51.624;5.886;2023-06-10T09:19:16;101418.13;;;27.31;35.63
62710;BME280;48770;51.624;5.886;2023-06-10T09:21:41;101406.91;;;27.31;35.71
62710;BME280;48770;51.624;5.886;2023-06-10T09:24:07;101407.69;;;27.32;35.43
62710;BME280;48770;51.624;5.886;2023-06-10T09:26:32;101414.16;;;27.32;35.36
62710;BME280;48770;51.624;5.886;2023-06-10T09:29:07;101406.53;;;27.33;35.22
62710;BME280;48770;51.624;5.886;2023-06-10T09:31:38;101408.97;;;27.34;35.30
62710;BME280;48770;51.624;5.886;2023-06-10T09:34:09;101401.72;;;27.33;35.52
62710;BME280;48770;51.624;5.886;2023-06-10T09:36:35;101404.16;;;27.35;35.17
62710;BME280;48770;51.624;5.886;2023-06-10T09:39:01;101400.16;;;27.36;35.19
62710;BME280;48770;51.624;5.886;2023-06-10T09:41:34;101399.75;;;27.38;35.36
62710;BME280;48770;51.624;5.886;2023-06-10T09:44:00;101404.97;;;27.36;35.09
62710;BME280;48770;51.624;5.886;2023-06-10T09:46:30;101401.75;;;27.37;35.59
62710;BME280;48770;51.624;5.886;2023-06-10T09:48:57;101398.56;;;27.39;35.10
62710;BME280;48770;51.624;5.886;2023-06-10T09:51:22;101396.97;;;27.38;35.11
62710;BME280;48770;51.624;5.886;2023-06-10T09:53:50;101395.75;;;27.39;35.19
62710;BME280;48770;51.624;5.886;2023-06-10T09:56:16;101405.00;;;27.39;35.23
62710;BME280;48770;51.624;5.886;2023-06-10T09:58:41;101392.94;;;27.39;35.50
62710;BME280;48770;51.624;5.886;2023-06-10T10:01:09;101395.38;;;27.40;35.18
62710;BME280;48770;51.624;5.886;2023-06-10T10:03:46;101394.56;;;27.40;35.22
62710;BME280;48770;51.624;5.886;2023-06-10T10:06:13;101395.38;;;27.40;35.33
62710;BME280;48770;51.624;5.886;2023-06-10T10:08:39;101399.00;;;27.41;35.15
62710;BME280;48770;51.624;5.886;2023-06-10T10:11:04;101397.00;;;27.41;35.03
62710;BME280;48770;51.624;5.886;2023-06-10T10:13:35;101394.19;;;27.41;35.19
62710;BME280;48770;51.624;5.886;2023-06-10T10:16:11;101397.00;;;27.41;35.41
62710;BME280;48770;51.624;5.886;2023-06-10T10:18:39;101388.19;;;27.43;34.92
62710;BME280;48770;51.624;5.886;2023-06-10T10:21:11;101389.38;;;27.42;35.22
62710;BME280;48770;51.624;5.886;2023-06-10T10:24:03;101401.41;;;27.42;35.23
62710;BME280;48770;51.624;5.886;2023-06-10T10:26:31;101389.75;;;27.40;35.47
62710;BME280;48770;51.624;5.886;2023-06-10T10:31:42;101391.78;;;27.43;35.48
62710;BME280;48770;51.624;5.886;2023-06-10T10:34:25;101388.19;;;27.43;35.40
62710;BME280;48770;51.624;5.886;2023-06-10T10:36:54;101381.38;;;27.44;35.42
62710;BME280;48770;51.624;5.886;2023-06-10T10:39:20;101382.97;;;27.45;34.90
62710;BME280;48770;51.624;5.886;2023-06-10T10:41:47;101383.78;;;27.45;34.92
62710;BME280;48770;51.624;5.886;2023-06-10T10:44:14;101380.97;;;27.45;34.93
62710;BME280;48770;51.624;5.886;2023-06-10T10:46:43;101379.41;;;27.48;35.16
62710;BME280;48770;51.624;5.886;2023-06-10T10:49:11;101378.22;;;27.49;35.28
62710;BME280;48770;51.624;5.886;2023-06-10T10:51:37;101372.59;;;27.49;35.43
62710;BME280;48770;51.624;5.886;2023-06-10T10:54:15;101370.59;;;27.49;35.39
62710;BME280;48770;51.624;5.886;2023-06-10T11:02:36;101372.59;;;27.49;34.88
62710;BME280;48770;51.624;5.886;2023-06-10T11:05:05;101364.97;;;27.49;34.90
62710;BME280;48770;51.624;5.886;2023-06-10T11:07:32;101367.38;;;27.51;35.02
62710;BME280;48770;51.624;5.886;2023-06-10T11:10:01;101358.56;;;27.52;35.28
62710;BME280;48770;51.624;5.886;2023-06-10T11:15:11;101364.19;;;27.52;35.17
62710;BME280;48770;51.624;5.886;2023-06-10T11:17:37;101362.19;;;27.53;34.93
62710;BME280;48770;51.624;5.886;2023-06-10T11:20:03;101363.00;;;27.53;35.04
62710;BME280;48770;51.624;5.886;2023-06-10T11:22:28;101351.38;;;27.55;34.85
62710;BME280;48770;51.624;5.886;2023-06-10T11:24:53;101352.56;;;27.54;35.17
62710;BME280;48770;51.624;5.886;2023-06-10T11:32:29;101354.59;;;27.57;35.13
62710;BME280;48770;51.624;5.886;2023-06-10T11:34:55;101348.97;;;27.57;34.81
62710;BME280;48770;51.624;5.886;2023-06-10T11:37:21;101352.59;;;27.57;35.02
62710;BME280;48770;51.624;5.886;2023-06-10T11:39:47;101333.75;;;27.58;34.88
62710;BME280;48770;51.624;5.886;2023-06-10T11:42:12;101335.38;;;27.59;34.81
62710;BME280;48770;51.624;5.886;2023-06-10T11:44:38;101340.16;;;27.58;35.16
62710;BME280;48770;51.624;5.886;2023-06-10T11:47:03;101344.22;;;27.61;34.77
62710;BME280;48770;51.624;5.886;2023-06-10T11:49:29;101344.22;;;27.61;34.79
62710;BME280;48770;51.624;5.886;2023-06-10T11:51:54;101335.81;;;27.61;34.89
62710;BME280;48770;51.624;5.886;2023-06-10T11:54:20;101331.00;;;27.61;35.15
62710;BME280;48770;51.624;5.886;2023-06-10T11:56:46;101331.44;;;27.63;35.03
62710;BME280;48770;51.624;5.886;2023-06-10T11:59:11;101328.63;;;27.63;35.32
62710;BME280;48770;51.624;5.886;2023-06-10T12:01:40;101321.00;;;27.64;35.34
62710;BME280;48770;51.624;5.886;2023-06-10T12:04:11;101323.44;;;27.66;35.39
62710;BME280;48770;51.624;5.886;2023-06-10T12:06:47;101324.25;;;27.66;34.99
62710;BME280;48770;51.624;5.886;2023-06-10T12:09:23;101315.00;;;27.66;34.91
62710;BME280;48770;51.624;5.886;2023-06-10T12:12:00;101320.22;;;27.67;35.25
62710;BME280;48770;51.624;5.886;2023-06-10T12:17:35;101316.19;;;27.64;35.34
62710;BME280;48770;51.624;5.886;2023-06-10T12:20:06;101307.38;;;27.66;34.95
62710;BME280;48770;51.624;5.886;2023-06-10T12:22:40;101309.00;;;27.67;35.06
62710;BME280;48770;51.624;5.886;2023-06-10T12:25:06;101308.59;;;27.69;35.49
62710;BME280;48770;51.624;5.886;2023-06-10T12:27:32;101307.41;;;27.70;35.25
62710;BME280;48770;51.624;5.886;2023-06-10T12:29:59;101313.84;;;27.70;35.33
62710;BME280;48770;51.624;5.886;2023-06-10T12:32:43;101302.19;;;27.68;35.50
62710;BME280;48770;51.624;5.886;2023-06-10T12:35:10;101312.03;;;27.51;35.48
62710;BME280;48770;51.624;5.886;2023-06-10T12:37:36;101306.53;;;27.62;35.38
62710;BME280;48770;51.624;5.886;2023-06-10T12:40:05;101306.19;;;27.67;35.45
62710;BME280;48770;51.624;5.886;2023-06-10T12:42:31;101312.22;;;27.69;35.64
62710;BME280;48770;51.624;5.886;2023-06-10T12:44:59;101297.78;;;27.71;35.66
62710;BME280;48770;51.624;5.886;2023-06-10T12:47:34;101298.59;;;27.71;35.31
62710;BME280;48770;51.624;5.886;2023-06-10T12:50:01;101301.41;;;27.71;35.77
62710;BME280;48770;51.624;5.886;2023-06-10T12:52:27;101300.19;;;27.72;35.85
62710;BME280;48770;51.624;5.886;2023-06-10T12:54:53;101306.22;;;27.74;35.63
62710;BME280;48770;51.624;5.886;2023-06-10T12:57:19;101307.84;;;27.75;35.50
62710;BME280;48770;51.624;5.886;2023-06-10T12:59:44;101303.03;;;27.76;35.80
62710;BME280;48770;51.624;5.886;2023-06-10T13:02:16;101301.84;;;27.77;35.70
62710;BME280;48770;51.624;5.886;2023-06-10T13:04:43;101299.44;;;27.79;36.21
62710;BME280;48770;51.624;5.886;2023-06-10T13:07:09;101305.88;;;27.79;36.74
62710;BME280;48770;51.624;5.886;2023-06-10T13:09:35;101309.09;;;27.81;36.32